Time,TemperatureF,DewpointF,PressureIn,WindDirection,WindDirectionDegrees,WindSpeedMPH,WindSpeedGustMPH,Humidity,HourlyPrecipIn,Conditions,Clouds,dailyrainin,SoftwareType,DateUTC
2013-04-16 00:03:00,45.8,43.6,29.86,NNE,18,9.0,12.0,92,0.00,,---,0.00,VWS V14.00,2013-04-16 05:03:00,
2013-04-16 00:08:00,45.7,43.8,29.86,North,5,6.0,12.0,93,0.00,,---,0.00,VWS V14.00,2013-04-16 05:08:00,
2013-04-16 00:13:00,45.7,44.1,29.86,NNE,32,10.0,15.0,94,0.00,,---,0.00,VWS V14.00,2013-04-16 05:13:00,
2013-04-16 00:18:00,45.5,43.9,29.86,NNE,32,13.0,13.0,94,0.00,,---,0.00,VWS V14.00,2013-04-16 05:18:00,
2013-04-16 00:23:00,45.5,43.9,29.86,North,5,10.0,10.0,94,0.00,,---,0.00,VWS V14.00,2013-04-16 05:23:00,
2013-04-16 00:28:00,45.5,44.2,29.86,NNE,19,11.0,15.0,95,0.00,,---,0.00,VWS V14.00,2013-04-16 05:28:00,
2013-04-16 00:33:00,45.5,44.2,29.87,NNE,26,6.0,10.0,95,0.00,,---,0.00,VWS V14.00,2013-04-16 05:33:00,
2013-04-16 00:38:00,45.5,44.2,29.87,North,9,5.0,6.0,95,0.00,,---,0.00,VWS V14.00,2013-04-16 05:38:00,
2013-04-16 00:43:00,45.7,44.6,29.87,North,9,6.0,9.0,96,0.00,,---,0.00,VWS V14.00,2013-04-16 05:43:00,
2013-04-16 00:48:00,45.7,44.6,29.90,NNE,22,3.0,5.0,96,0.00,,---,0.00,VWS V14.00,2013-04-16 05:48:00,
2013-04-16 00:53:00,45.7,44.6,29.90,NNE,22,9.0,9.0,96,0.00,,---,0.00,VWS V14.00,2013-04-16 05:53:00,
2013-04-16 00:58:00,45.7,44.6,29.90,North,360,5.0,5.0,96,0.00,,---,0.00,VWS V14.00,2013-04-16 05:58:00,
2013-04-16 01:03:00,45.7,44.6,29.92,NNW,348,5.0,7.0,96,0.00,,---,0.00,VWS V14.00,2013-04-16 06:03:00,
2013-04-16 01:08:00,45.5,44.4,29.92,NNW,348,4.0,4.0,96,0.00,,---,0.00,VWS V14.00,2013-04-16 06:08:00,
2013-04-16 01:14:00,45.4,44.3,29.92,North,9,4.0,4.0,96,0.00,,---,0.00,VWS V14.00,2013-04-16 06:14:00,
2013-04-16 01:19:00,45.2,44.1,29.93,North,9,6.0,7.0,96,0.00,,---,0.00,VWS V14.00,2013-04-16 06:19:00,
2013-04-16 01:24:00,45.2,44.1,29.93,North,5,10.0,10.0,96,0.00,,---,0.00,VWS V14.00,2013-04-16 06:24:00,
2013-04-16 01:29:00,44.8,43.7,29.93,North,355,6.0,9.0,96,0.00,,---,0.00,VWS V14.00,2013-04-16 06:29:00,
2013-04-16 01:34:00,44.3,43.2,29.93,North,5,6.0,12.0,96,0.00,,---,0.00,VWS V14.00,2013-04-16 06:34:00,
2013-04-16 01:39:00,44.2,43.1,29.93,North,5,3.0,7.0,96,0.00,,---,0.00,VWS V14.00,2013-04-16 06:39:00,
2013-04-16 01:44:00,44.2,43.1,29.93,North,5,4.0,6.0,96,0.00,,---,0.00,VWS V14.00,2013-04-16 06:44:00,
2013-04-16 01:49:00,44.1,43.0,29.94,NNE,13,5.0,9.0,96,0.00,,---,0.00,VWS V14.00,2013-04-16 06:49:00,
2013-04-16 01:54:00,44.1,43.0,29.94,NNE,32,9.0,9.0,96,0.00,,---,0.00,VWS V14.00,2013-04-16 06:54:00,
2013-04-16 01:59:00,43.8,42.7,29.94,NNE,16,11.0,11.0,96,0.00,,---,0.00,VWS V14.00,2013-04-16 06:59:00,
2013-04-16 02:04:00,43.8,43.0,29.92,NNE,14,3.0,5.0,97,0.00,,---,0.00,VWS V14.00,2013-04-16 07:04:00,
2013-04-16 02:09:00,43.9,43.1,29.92,NNE,14,4.0,9.0,97,0.00,,---,0.00,VWS V14.00,2013-04-16 07:09:00,
2013-04-16 02:14:00,43.9,43.1,29.92,North,9,6.0,9.0,97,0.00,,---,0.00,VWS V14.00,2013-04-16 07:14:00,
2013-04-16 02:19:00,43.9,43.1,29.94,North,9,4.0,6.0,97,0.00,,---,0.00,VWS V14.00,2013-04-16 07:19:00,
2013-04-16 02:24:00,43.9,43.1,29.94,North,9,3.0,6.0,97,0.00,,---,0.00,VWS V14.00,2013-04-16 07:24:00,
2013-04-16 02:29:00,43.9,43.1,29.94,North,5,4.0,5.0,97,0.00,,---,0.00,VWS V14.00,2013-04-16 07:29:00,
2013-04-16 02:34:00,43.9,43.1,29.94,North,5,5.0,7.0,97,0.00,,---,0.00,VWS V14.00,2013-04-16 07:34:00,
2013-04-16 02:40:00,43.9,43.1,29.94,North,5,3.0,5.0,97,0.00,,---,0.00,VWS V14.00,2013-04-16 07:40:00,
2013-04-16 02:45:00,43.9,43.1,29.94,North,5,4.0,4.0,97,0.00,,---,0.00,VWS V14.00,2013-04-16 07:45:00,
2013-04-16 02:50:00,43.8,43.0,29.96,North,5,3.0,6.0,97,0.00,,---,0.00,VWS V14.00,2013-04-16 07:50:00,
2013-04-16 02:55:00,43.8,43.0,29.96,North,350,9.0,9.0,97,0.00,,---,0.00,VWS V14.00,2013-04-16 07:55:00,
2013-04-16 03:00:00,43.8,43.0,29.96,NNW,346,0.0,0.0,97,0.00,,---,0.00,VWS V14.00,2013-04-16 08:00:00,
2013-04-16 03:05:00,43.8,43.0,29.99,NNW,346,0.0,0.0,97,0.00,,---,0.00,VWS V14.00,2013-04-16 08:05:00,
2013-04-16 03:10:00,43.9,43.1,29.99,NNW,346,0.0,0.0,97,0.00,,---,0.00,VWS V14.00,2013-04-16 08:10:00,
2013-04-16 03:15:00,43.9,43.1,29.99,NNW,346,0.0,0.0,97,0.00,,---,0.00,VWS V14.00,2013-04-16 08:15:00,
2013-04-16 03:20:00,43.8,43.0,29.98,NNW,346,0.0,3.0,97,0.00,,---,0.00,VWS V14.00,2013-04-16 08:20:00,
2013-04-16 03:25:00,43.8,43.0,29.98,NNW,346,0.0,0.0,97,0.00,,---,0.00,VWS V14.00,2013-04-16 08:25:00,
2013-04-16 03:30:00,43.8,43.0,29.98,NNW,346,1.0,2.0,97,0.00,,---,0.00,VWS V14.00,2013-04-16 08:30:00,
2013-04-16 03:35:00,43.8,43.0,29.96,NNW,346,3.0,4.0,97,0.00,,---,0.00,VWS V14.00,2013-04-16 08:35:00,
2013-04-16 03:40:00,43.8,43.0,29.96,NNW,346,3.0,7.0,97,0.00,,---,0.00,VWS V14.00,2013-04-16 08:40:00,
2013-04-16 03:45:00,43.8,43.0,29.96,NNW,346,5.0,5.0,97,0.00,,---,0.00,VWS V14.00,2013-04-16 08:45:00,
2013-04-16 03:51:00,43.8,43.0,29.95,North,349,5.0,10.0,97,0.00,,---,0.00,VWS V14.00,2013-04-16 08:51:00,
2013-04-16 03:56:00,43.5,42.7,29.95,North,351,7.0,9.0,97,0.00,,---,0.00,VWS V14.00,2013-04-16 08:56:00,
2013-04-16 04:01:00,43.3,42.5,29.95,North,355,5.0,8.0,97,0.00,,---,0.00,VWS V14.00,2013-04-16 09:01:00,
2013-04-16 04:06:00,43.2,42.4,29.95,North,355,4.0,6.0,97,0.00,,---,0.00,VWS V14.00,2013-04-16 09:06:00,
2013-04-16 04:11:00,42.9,42.1,29.95,North,355,3.0,6.0,97,0.00,,---,0.00,VWS V14.00,2013-04-16 09:11:00,
2013-04-16 04:16:00,42.5,41.7,29.97,North,355,3.0,5.0,97,0.00,,---,0.00,VWS V14.00,2013-04-16 09:16:00,
2013-04-16 04:21:00,42.3,41.5,29.97,NNE,14,4.0,4.0,97,0.00,,---,0.00,VWS V14.00,2013-04-16 09:21:00,
2013-04-16 04:26:00,42.1,41.3,29.97,NNE,14,4.0,4.0,97,0.00,,---,0.00,VWS V14.00,2013-04-16 09:26:00,
2013-04-16 04:31:00,41.8,41.0,30.00,NNE,14,3.0,5.0,97,0.00,,---,0.00,VWS V14.00,2013-04-16 09:31:00,
2013-04-16 04:36:00,41.6,40.8,30.00,NNE,13,3.0,4.0,97,0.00,,---,0.00,VWS V14.00,2013-04-16 09:36:00,
2013-04-16 04:41:00,41.6,40.5,30.00,NNE,13,4.0,5.0,96,0.00,,---,0.00,VWS V14.00,2013-04-16 09:41:00,
2013-04-16 04:46:00,41.6,40.5,30.00,NNE,13,1.0,2.0,96,0.00,,---,0.00,VWS V14.00,2013-04-16 09:46:00,
2013-04-16 04:52:00,41.6,40.5,30.00,NNE,13,1.0,5.0,96,0.00,,---,0.00,VWS V14.00,2013-04-16 09:52:00,
2013-04-16 04:57:00,41.5,40.5,30.00,NNE,13,5.0,6.0,96,0.00,,---,0.00,VWS V14.00,2013-04-16 09:57:00,
2013-04-16 05:02:00,41.5,40.5,30.01,NNE,13,4.0,6.0,96,0.00,,---,0.00,VWS V14.00,2013-04-16 10:02:00,
2013-04-16 05:07:00,41.3,40.2,30.01,NNE,13,3.0,3.0,96,0.00,,---,0.00,VWS V14.00,2013-04-16 10:07:00,
2013-04-16 05:12:00,41.3,40.2,30.01,NNE,13,4.0,6.0,96,0.00,,---,0.00,VWS V14.00,2013-04-16 10:12:00,
2013-04-16 05:17:00,41.3,40.2,30.02,NNE,13,2.0,4.0,96,0.00,,---,0.00,VWS V14.00,2013-04-16 10:17:00,
2013-04-16 05:22:00,41.3,40.2,30.02,NNE,13,0.0,3.0,96,0.00,,---,0.00,VWS V14.00,2013-04-16 10:22:00,
2013-04-16 05:27:00,41.3,40.2,30.02,NNE,13,2.0,2.0,96,0.00,,---,0.00,VWS V14.00,2013-04-16 10:27:00,
2013-04-16 05:32:00,41.5,40.5,30.01,NNE,13,1.0,4.0,96,0.00,,---,0.00,VWS V14.00,2013-04-16 10:32:00,
2013-04-16 05:37:00,41.5,40.5,30.01,NNE,13,3.0,3.0,96,0.00,,---,0.00,VWS V14.00,2013-04-16 10:37:00,
2013-04-16 05:42:00,41.5,40.5,30.01,NNE,13,3.0,3.0,96,0.00,,---,0.00,VWS V14.00,2013-04-16 10:42:00,
2013-04-16 05:47:00,41.6,40.5,30.03,NNE,13,2.0,3.0,96,0.00,,---,0.00,VWS V14.00,2013-04-16 10:47:00,
2013-04-16 05:52:00,41.6,40.5,30.03,NNE,13,0.0,0.0,96,0.00,,---,0.00,VWS V14.00,2013-04-16 10:52:00,
2013-04-16 05:57:00,41.6,40.5,30.03,NNE,13,0.0,0.0,96,0.00,,---,0.00,VWS V14.00,2013-04-16 10:57:00,
2013-04-16 06:02:00,41.8,40.8,30.05,NNE,13,5.0,5.0,96,0.00,,---,0.00,VWS V14.00,2013-04-16 11:02:00,
2013-04-16 06:07:00,41.8,40.8,30.05,NNE,13,1.0,3.0,96,0.00,,---,0.00,VWS V14.00,2013-04-16 11:07:00,
2013-04-16 06:12:00,41.6,40.5,30.05,NNE,13,3.0,5.0,96,0.00,,---,0.00,VWS V14.00,2013-04-16 11:12:00,
2013-04-16 06:17:00,41.6,40.5,30.05,NNE,13,4.0,4.0,96,0.00,,---,0.00,VWS V14.00,2013-04-16 11:17:00,
2013-04-16 06:22:00,41.8,40.8,30.05,NNE,13,3.0,3.0,96,0.00,,---,0.00,VWS V14.00,2013-04-16 11:22:00,
2013-04-16 06:28:00,41.8,40.8,30.05,NNE,13,2.0,3.0,96,0.00,,---,0.00,VWS V14.00,2013-04-16 11:28:00,
2013-04-16 06:33:00,41.8,40.8,30.07,NNE,13,3.0,3.0,96,0.00,,---,0.00,VWS V14.00,2013-04-16 11:33:00,
2013-04-16 06:38:00,41.8,40.8,30.07,NNE,13,4.0,4.0,96,0.00,,---,0.00,VWS V14.00,2013-04-16 11:38:00,
2013-04-16 06:43:00,41.9,40.8,30.07,NNE,13,3.0,5.0,96,0.00,,---,0.00,VWS V14.00,2013-04-16 11:43:00,
2013-04-16 06:48:00,41.9,40.8,30.07,NNE,13,4.0,4.0,96,0.00,,---,0.00,VWS V14.00,2013-04-16 11:48:00,
2013-04-16 06:53:00,41.9,40.8,30.07,NNE,13,4.0,4.0,96,0.00,,---,0.00,VWS V14.00,2013-04-16 11:53:00,
2013-04-16 06:58:00,41.9,40.6,30.07,NNE,13,2.0,3.0,95,0.00,,---,0.00,VWS V14.00,2013-04-16 11:58:00,
2013-04-16 07:03:00,41.9,40.6,30.06,NNE,13,2.0,4.0,95,0.00,,---,0.00,VWS V14.00,2013-04-16 12:03:00,
2013-04-16 07:09:00,41.9,40.6,30.06,NNE,13,0.0,2.0,95,0.00,,---,0.00,VWS V14.00,2013-04-16 12:09:00,
2013-04-16 07:14:00,41.9,40.6,30.06,NNE,13,4.0,5.0,95,0.00,,---,0.00,VWS V14.00,2013-04-16 12:14:00,
2013-04-16 07:19:00,41.9,40.6,30.08,NNE,13,4.0,4.0,95,0.00,,---,0.00,VWS V14.00,2013-04-16 12:19:00,
2013-04-16 07:24:00,41.9,40.3,30.08,NNE,13,1.0,3.0,94,0.00,,---,0.00,VWS V14.00,2013-04-16 12:24:00,
2013-04-16 07:29:00,41.9,40.3,30.08,NNE,13,2.0,4.0,94,0.00,,---,0.00,VWS V14.00,2013-04-16 12:29:00,
2013-04-16 07:34:00,42.1,40.5,30.08,NNE,13,2.0,6.0,94,0.00,,---,0.00,VWS V14.00,2013-04-16 12:34:00,
2013-04-16 07:39:00,42.2,40.6,30.08,NNE,13,5.0,7.0,94,0.00,,---,0.00,VWS V14.00,2013-04-16 12:39:00,
2013-04-16 07:44:00,42.3,40.4,30.08,NNE,13,5.0,5.0,93,0.00,,---,0.00,VWS V14.00,2013-04-16 12:44:00,
2013-04-16 07:49:00,42.3,40.4,30.07,NNE,14,4.0,6.0,93,0.00,,---,0.00,VWS V14.00,2013-04-16 12:49:00,
2013-04-16 07:54:00,42.5,40.6,30.07,NNE,13,6.0,6.0,93,0.00,,---,0.00,VWS V14.00,2013-04-16 12:54:00,
2013-04-16 07:59:00,42.6,40.7,30.07,NNE,14,5.0,5.0,93,0.00,,---,0.00,VWS V14.00,2013-04-16 12:59:00,
2013-04-16 08:04:00,42.8,40.6,30.07,NNE,13,3.0,3.0,92,0.00,,---,0.00,VWS V14.00,2013-04-16 13:04:00,
2013-04-16 08:10:00,42.9,40.7,30.07,NNE,13,5.0,7.0,92,0.00,,---,0.00,VWS V14.00,2013-04-16 13:10:00,
2013-04-16 08:15:00,42.9,40.5,30.07,NNE,13,7.0,7.0,91,0.00,,---,0.00,VWS V14.00,2013-04-16 13:15:00,
2013-04-16 08:20:00,43.1,40.1,30.08,North,9,6.0,7.0,89,0.00,,---,0.00,VWS V14.00,2013-04-16 13:20:00,
2013-04-16 08:25:00,43.2,40.2,30.08,North,11,5.0,7.0,89,0.00,,---,0.00,VWS V14.00,2013-04-16 13:25:00,
2013-04-16 08:30:00,43.3,40.0,30.08,NNE,13,6.0,7.0,88,0.00,,---,0.00,VWS V14.00,2013-04-16 13:30:00,
2013-04-16 08:35:00,43.8,40.2,30.08,NNE,20,7.0,9.0,87,0.00,,---,0.00,VWS V14.00,2013-04-16 13:35:00,
2013-04-16 08:40:00,44.1,39.9,30.08,NNE,19,4.0,10.0,85,0.00,,---,0.00,VWS V14.00,2013-04-16 13:40:00,
2013-04-16 08:45:00,44.5,40.3,30.08,NNE,18,6.0,7.0,85,0.00,,---,0.00,VWS V14.00,2013-04-16 13:45:00,
2013-04-16 08:50:00,44.9,40.4,30.08,NNE,22,6.0,8.0,84,0.00,,---,0.00,VWS V14.00,2013-04-16 13:50:00,
2013-04-16 08:55:00,45.2,40.3,30.08,NNE,22,5.0,5.0,83,0.00,,---,0.00,VWS V14.00,2013-04-16 13:55:00,
2013-04-16 09:00:00,45.5,40.0,30.08,NNE,19,6.0,6.0,81,0.00,,---,0.00,VWS V14.00,2013-04-16 14:00:00,
2013-04-16 09:05:00,45.8,40.0,30.07,NNE,19,3.0,5.0,80,0.00,,---,0.00,VWS V14.00,2013-04-16 14:05:00,
2013-04-16 09:10:00,46.1,40.6,30.07,NNE,19,4.0,8.0,81,0.00,,---,0.00,VWS V14.00,2013-04-16 14:10:00,
2013-04-16 09:15:00,46.0,39.5,30.07,NNE,18,6.0,7.0,78,0.00,,---,0.00,VWS V14.00,2013-04-16 14:15:00,
2013-04-16 09:20:00,45.8,39.7,30.08,NNE,18,6.0,6.0,79,0.00,,---,0.00,VWS V14.00,2013-04-16 14:20:00,
2013-04-16 09:25:00,45.7,39.2,30.08,NNE,15,7.0,10.0,78,0.00,,---,0.00,VWS V14.00,2013-04-16 14:25:00,
2013-04-16 09:31:00,45.4,39.0,30.08,NNE,15,2.0,4.0,78,0.00,,---,0.00,VWS V14.00,2013-04-16 14:31:00,
2013-04-16 09:36:00,45.7,39.2,30.09,NNE,15,4.0,6.0,78,0.00,,---,0.00,VWS V14.00,2013-04-16 14:36:00,
2013-04-16 09:41:00,46.0,39.5,30.09,NNE,16,4.0,7.0,78,0.00,,---,0.00,VWS V14.00,2013-04-16 14:41:00,
2013-04-16 09:46:00,46.4,40.2,30.09,NNE,17,4.0,5.0,79,0.00,,---,0.00,VWS V14.00,2013-04-16 14:46:00,
2013-04-16 09:51:00,45.8,38.7,30.09,NNE,17,3.0,7.0,76,0.00,,---,0.00,VWS V14.00,2013-04-16 14:51:00,
2013-04-16 09:56:00,45.4,38.3,30.09,NNE,17,2.0,4.0,76,0.00,,---,0.00,VWS V14.00,2013-04-16 14:56:00,
2013-04-16 10:01:00,45.1,38.7,30.11,NNE,17,4.0,4.0,78,0.00,,---,0.00,VWS V14.00,2013-04-16 15:01:00,
2013-04-16 10:06:00,44.8,39.0,30.11,NNE,17,1.0,2.0,80,0.00,,---,0.00,VWS V14.00,2013-04-16 15:06:00,
2013-04-16 10:11:00,44.6,39.1,30.11,NNE,17,1.0,4.0,81,0.00,,---,0.00,VWS V14.00,2013-04-16 15:11:00,
2013-04-16 10:16:00,44.6,39.8,30.15,NNE,17,0.0,2.0,83,0.00,,---,0.00,VWS V14.00,2013-04-16 15:16:00,
2013-04-16 10:21:00,44.6,40.1,30.15,NNE,17,0.0,0.0,84,0.00,,---,0.00,VWS V14.00,2013-04-16 15:21:00,
2013-04-16 10:27:00,44.6,40.4,30.15,NNE,17,4.0,5.0,85,0.00,,---,0.00,VWS V14.00,2013-04-16 15:27:00,
2013-04-16 10:32:00,44.5,40.3,30.10,NNE,23,6.0,10.0,85,0.00,,---,0.00,VWS V14.00,2013-04-16 15:32:00,
2013-04-16 10:37:00,44.3,40.7,30.10,NNE,24,7.0,8.0,87,0.00,,---,0.00,VWS V14.00,2013-04-16 15:37:00,
2013-04-16 10:42:00,44.2,40.6,30.10,NNE,27,5.0,8.0,87,0.00,,---,0.00,VWS V14.00,2013-04-16 15:42:00,
2013-04-16 10:47:00,44.2,40.9,30.07,NNE,33,6.0,10.0,88,0.00,,---,0.00,VWS V14.00,2013-04-16 15:47:00,
2013-04-16 10:52:00,44.2,41.2,30.07,NNE,32,7.0,7.0,89,0.00,,---,0.00,VWS V14.00,2013-04-16 15:52:00,
2013-04-16 10:57:00,44.5,41.5,30.07,North,5,2.0,5.0,89,0.00,,---,0.00,VWS V14.00,2013-04-16 15:57:00,
2013-04-16 11:02:00,44.6,41.6,30.13,North,5,2.0,2.0,89,0.00,,---,0.00,VWS V14.00,2013-04-16 16:02:00,
2013-04-16 11:07:00,44.9,41.9,30.13,North,5,3.0,3.0,89,0.00,,---,0.00,VWS V14.00,2013-04-16 16:07:00,
2013-04-16 11:12:00,45.4,42.3,30.13,North,5,4.0,4.0,89,0.00,,---,0.00,VWS V14.00,2013-04-16 16:12:00,
2013-04-16 11:17:00,45.7,42.4,30.13,North,5,2.0,3.0,88,0.00,,---,0.00,VWS V14.00,2013-04-16 16:17:00,
2013-04-16 11:22:00,45.7,41.8,30.13,North,5,4.0,4.0,86,0.00,,---,0.00,VWS V14.00,2013-04-16 16:22:00,
2013-04-16 11:27:00,45.5,41.3,30.13,North,5,3.0,5.0,85,0.00,,---,0.00,VWS V14.00,2013-04-16 16:27:00,
2013-04-16 11:32:00,45.2,40.7,30.12,North,5,2.0,4.0,84,0.00,,---,0.00,VWS V14.00,2013-04-16 16:32:00,
2013-04-16 11:37:00,44.9,40.1,30.12,North,5,4.0,5.0,83,0.00,,---,0.00,VWS V14.00,2013-04-16 16:37:00,
2013-04-16 11:42:00,44.8,40.0,30.12,North,5,3.0,5.0,83,0.00,,---,0.00,VWS V14.00,2013-04-16 16:42:00,
2013-04-16 11:47:00,44.6,40.1,30.12,North,5,4.0,7.0,84,0.00,,---,0.00,VWS V14.00,2013-04-16 16:47:00,
2013-04-16 11:52:00,44.6,40.4,30.12,North,9,2.0,10.0,85,0.00,,---,0.00,VWS V14.00,2013-04-16 16:52:00,
2013-04-16 11:57:00,44.9,40.7,30.12,North,9,3.0,5.0,85,0.00,,---,0.00,VWS V14.00,2013-04-16 16:57:00,
2013-04-16 12:03:00,45.1,41.2,30.15,North,9,0.0,0.0,86,0.00,,---,0.00,VWS V14.00,2013-04-16 17:03:00,
2013-04-16 12:08:00,45.2,41.3,30.15,North,9,3.0,3.0,86,0.00,,---,0.00,VWS V14.00,2013-04-16 17:08:00,
2013-04-16 12:13:00,45.1,41.2,30.15,North,9,4.0,5.0,86,0.00,,---,0.00,VWS V14.00,2013-04-16 17:13:00,
2013-04-16 12:18:00,44.8,40.9,30.10,NNE,17,6.0,9.0,86,0.00,,---,0.00,VWS V14.00,2013-04-16 17:18:00,
2013-04-16 12:23:00,44.5,40.6,30.10,NNE,17,5.0,8.0,86,0.00,,---,0.00,VWS V14.00,2013-04-16 17:23:00,
2013-04-16 12:28:00,44.2,40.6,30.10,NNE,17,8.0,10.0,87,0.00,,---,0.00,VWS V14.00,2013-04-16 17:28:00,
2013-04-16 12:33:00,43.9,40.6,30.10,NNE,17,1.0,3.0,88,0.00,,---,0.00,VWS V14.00,2013-04-16 17:33:00,
2013-04-16 12:38:00,44.2,41.2,30.10,NNE,17,3.0,7.0,89,0.00,,---,0.00,VWS V14.00,2013-04-16 17:38:00,
2013-04-16 12:43:00,44.3,41.0,30.10,NNE,17,1.0,4.0,88,0.00,,---,0.00,VWS V14.00,2013-04-16 17:43:00,
2013-04-16 12:48:00,44.6,41.3,30.14,NNE,17,3.0,6.0,88,0.00,,---,0.00,VWS V14.00,2013-04-16 17:48:00,
2013-04-16 12:53:00,44.6,41.3,30.14,NNE,17,4.0,4.0,88,0.00,,---,0.00,VWS V14.00,2013-04-16 17:53:00,
2013-04-16 12:58:00,44.8,40.9,30.14,NNE,17,6.0,6.0,86,0.00,,---,0.00,VWS V14.00,2013-04-16 17:58:00,
2013-04-16 13:03:00,44.8,40.6,30.13,NNE,18,5.0,9.0,85,0.00,,---,0.00,VWS V14.00,2013-04-16 18:03:00,
2013-04-16 13:08:00,44.9,40.7,30.13,NNE,22,6.0,9.0,85,0.00,,---,0.00,VWS V14.00,2013-04-16 18:08:00,
2013-04-16 13:13:00,45.2,41.0,30.13,NNE,22,4.0,7.0,85,0.00,,---,0.00,VWS V14.00,2013-04-16 18:13:00,
2013-04-16 13:18:00,45.5,41.6,30.12,NNE,22,5.0,5.0,86,0.00,,---,0.00,VWS V14.00,2013-04-16 18:18:00,
2013-04-16 13:23:00,46.4,42.5,30.12,NNE,22,5.0,6.0,86,0.00,,---,0.00,VWS V14.00,2013-04-16 18:23:00,
2013-04-16 13:28:00,46.8,42.8,30.12,NNE,21,5.0,7.0,86,0.00,,---,0.00,VWS V14.00,2013-04-16 18:28:00,
2013-04-16 13:33:00,47.1,42.5,30.14,NNE,21,4.0,6.0,84,0.00,,---,0.00,VWS V14.00,2013-04-16 18:33:00,
2013-04-16 13:39:00,46.8,41.6,30.14,NNE,18,3.0,5.0,82,0.00,,---,0.00,VWS V14.00,2013-04-16 18:39:00,
2013-04-16 13:44:00,46.8,41.6,30.14,NNE,18,6.0,9.0,82,0.00,,---,0.00,VWS V14.00,2013-04-16 18:44:00,
2013-04-16 13:49:00,47.3,42.4,30.13,NNE,19,7.0,7.0,83,0.00,,---,0.00,VWS V14.00,2013-04-16 18:49:00,
2013-04-16 13:54:00,47.6,42.4,30.13,NNE,17,10.0,11.0,82,0.00,,---,0.00,VWS V14.00,2013-04-16 18:54:00,
2013-04-16 13:59:00,48.0,42.5,30.13,NNE,15,4.0,9.0,81,0.00,,---,0.00,VWS V14.00,2013-04-16 18:59:00,
2013-04-16 14:04:00,48.0,41.8,30.13,NNE,20,5.0,8.0,79,0.00,,---,0.00,VWS V14.00,2013-04-16 19:04:00,
2013-04-16 14:09:00,47.9,41.4,30.13,NNE,27,6.0,9.0,78,0.00,,---,0.00,VWS V14.00,2013-04-16 19:09:00,
2013-04-16 14:14:00,47.7,40.8,30.13,NNE,22,9.0,11.0,77,0.00,,---,0.00,VWS V14.00,2013-04-16 19:14:00,
2013-04-16 14:19:00,47.9,41.7,30.11,NNE,22,6.0,9.0,79,0.00,,---,0.00,VWS V14.00,2013-04-16 19:19:00,
2013-04-16 14:24:00,48.3,42.1,30.11,NNE,29,10.0,10.0,79,0.00,,---,0.00,VWS V14.00,2013-04-16 19:24:00,
2013-04-16 14:29:00,48.8,42.3,30.11,NNE,14,6.0,12.0,78,0.00,,---,0.00,VWS V14.00,2013-04-16 19:29:00,
2013-04-16 14:34:00,48.9,41.3,30.11,NNE,15,4.0,11.0,75,0.00,,---,0.00,VWS V14.00,2013-04-16 19:34:00,
2013-04-16 14:39:00,49.5,41.9,30.11,NNE,16,7.0,10.0,75,0.00,,---,0.00,VWS V14.00,2013-04-16 19:39:00,
2013-04-16 14:44:00,50.4,42.1,30.11,North,11,5.0,11.0,73,0.00,,---,0.00,VWS V14.00,2013-04-16 19:44:00,
2013-04-16 14:49:00,50.4,41.4,30.10,NNE,17,9.0,12.0,71,0.00,,---,0.00,VWS V14.00,2013-04-16 19:49:00,
2013-04-16 14:54:00,50.4,41.7,30.10,NNE,16,10.0,12.0,72,0.00,,---,0.00,VWS V14.00,2013-04-16 19:54:00,
2013-04-16 14:59:00,50.8,41.8,30.10,NNE,19,8.0,14.0,71,0.00,,---,0.00,VWS V14.00,2013-04-16 19:59:00,
2013-04-16 15:04:00,50.5,41.5,30.10,NNE,32,8.0,13.0,71,0.00,,---,0.00,VWS V14.00,2013-04-16 20:04:00,
2013-04-16 15:10:00,50.4,41.7,30.10,North,9,11.0,12.0,72,0.00,,---,0.00,VWS V14.00,2013-04-16 20:10:00,
2013-04-16 15:15:00,51.0,42.7,30.10,NNE,23,6.0,11.0,73,0.00,,---,0.00,VWS V14.00,2013-04-16 20:15:00,
2013-04-16 15:20:00,50.8,41.8,30.10,NNE,30,10.0,10.0,71,0.00,,---,0.00,VWS V14.00,2013-04-16 20:20:00,
2013-04-16 15:25:00,51.0,42.7,30.10,NNE,21,7.0,7.0,73,0.00,,---,0.00,VWS V14.00,2013-04-16 20:25:00,
2013-04-16 15:30:00,51.6,42.9,30.10,NNE,20,6.0,8.0,72,0.00,,---,0.00,VWS V14.00,2013-04-16 20:30:00,
2013-04-16 15:35:00,52.3,43.5,30.09,NNE,17,7.0,7.0,72,0.00,,---,0.00,VWS V14.00,2013-04-16 20:35:00,
2013-04-16 15:40:00,52.2,41.6,30.09,NNE,16,10.0,11.0,67,0.00,,---,0.00,VWS V14.00,2013-04-16 20:40:00,
2013-04-16 15:45:00,51.7,39.9,30.09,NNE,15,6.0,7.0,64,0.00,,---,0.00,VWS V14.00,2013-04-16 20:45:00,
2013-04-16 15:50:00,51.6,41.0,30.11,NNE,16,6.0,6.0,67,0.00,,---,0.00,VWS V14.00,2013-04-16 20:50:00,
2013-04-16 15:55:00,51.4,41.2,30.11,NNE,26,6.0,10.0,68,0.00,,---,0.00,VWS V14.00,2013-04-16 20:55:00,
2013-04-16 16:00:00,51.4,40.8,30.11,NNE,26,7.0,9.0,67,0.00,,---,0.00,VWS V14.00,2013-04-16 21:00:00,
2013-04-16 16:05:00,51.7,41.9,30.11,NNE,26,5.0,9.0,69,0.00,,---,0.00,VWS V14.00,2013-04-16 21:05:00,
2013-04-16 16:10:00,51.7,40.7,30.11,NNE,30,9.0,10.0,66,0.00,,---,0.00,VWS V14.00,2013-04-16 21:10:00,
2013-04-16 16:15:00,51.7,39.9,30.11,NNE,20,6.0,10.0,64,0.00,,---,0.00,VWS V14.00,2013-04-16 21:15:00,
2013-04-16 16:20:00,51.6,40.2,30.10,NNE,22,6.0,11.0,65,0.00,,---,0.00,VWS V14.00,2013-04-16 21:20:00,
2013-04-16 16:25:00,51.3,39.5,30.10,NNE,16,7.0,8.0,64,0.00,,---,0.00,VWS V14.00,2013-04-16 21:25:00,
2013-04-16 16:31:00,51.0,39.3,30.10,NNE,19,9.0,9.0,64,0.00,,---,0.00,VWS V14.00,2013-04-16 21:31:00,
2013-04-16 16:36:00,50.7,39.8,30.11,NNE,17,7.0,7.0,66,0.00,,---,0.00,VWS V14.00,2013-04-16 21:36:00,
2013-04-16 16:41:00,50.5,40.0,30.11,NNE,17,4.0,6.0,67,0.00,,---,0.00,VWS V14.00,2013-04-16 21:41:00,
2013-04-16 16:46:00,50.4,40.2,30.11,NNE,18,5.0,7.0,68,0.00,,---,0.00,VWS V14.00,2013-04-16 21:46:00,
2013-04-16 16:51:00,50.4,40.2,30.11,NNE,19,5.0,6.0,68,0.00,,---,0.00,VWS V14.00,2013-04-16 21:51:00,
2013-04-16 16:56:00,50.4,40.6,30.11,NNE,19,4.0,4.0,69,0.00,,---,0.00,VWS V14.00,2013-04-16 21:56:00,
2013-04-16 17:01:00,50.4,41.0,30.11,NNE,19,5.0,6.0,70,0.00,,---,0.00,VWS V14.00,2013-04-16 22:01:00,
2013-04-16 17:06:00,50.4,41.4,30.12,NNE,19,4.0,4.0,71,0.00,,---,0.00,VWS V14.00,2013-04-16 22:06:00,
2013-04-16 17:11:00,50.4,40.6,30.12,NNE,20,7.0,9.0,69,0.00,,---,0.00,VWS V14.00,2013-04-16 22:11:00,
2013-04-16 17:16:00,50.4,40.2,30.12,NNE,23,5.0,9.0,68,0.00,,---,0.00,VWS V14.00,2013-04-16 22:16:00,
2013-04-16 17:21:00,50.2,39.7,30.12,NNE,25,6.0,7.0,67,0.00,,---,0.00,VWS V14.00,2013-04-16 22:21:00,
2013-04-16 17:26:00,50.2,39.7,30.12,NNE,26,7.0,8.0,67,0.00,,---,0.00,VWS V14.00,2013-04-16 22:26:00,
2013-04-16 17:31:00,50.2,39.7,30.11,NE,34,5.0,9.0,67,0.00,,---,0.00,VWS V14.00,2013-04-16 22:31:00,
2013-04-16 17:37:00,50.2,39.3,30.11,NE,35,5.0,7.0,66,0.00,,---,0.00,VWS V14.00,2013-04-16 22:37:00,
2013-04-16 17:42:00,50.2,40.1,30.11,NNE,32,7.0,8.0,68,0.00,,---,0.00,VWS V14.00,2013-04-16 22:42:00,
2013-04-16 17:47:00,50.2,40.1,30.11,NNE,31,3.0,5.0,68,0.00,,---,0.00,VWS V14.00,2013-04-16 22:47:00,
2013-04-16 17:52:00,50.2,39.7,30.11,NNE,28,8.0,11.0,67,0.00,,---,0.00,VWS V14.00,2013-04-16 22:52:00,
2013-04-16 17:57:00,50.1,39.2,30.11,NNE,32,4.0,6.0,66,0.00,,---,0.00,VWS V14.00,2013-04-16 22:57:00,
2013-04-16 18:02:00,50.1,40.0,30.11,NNE,32,4.0,7.0,68,0.00,,---,0.00,VWS V14.00,2013-04-16 23:02:00,
2013-04-16 18:07:00,50.1,40.3,30.11,NNE,25,6.0,7.0,69,0.00,,---,0.00,VWS V14.00,2013-04-16 23:07:00,
2013-04-16 18:12:00,49.9,40.2,30.11,NNE,29,9.0,9.0,69,0.00,,---,0.00,VWS V14.00,2013-04-16 23:12:00,
2013-04-16 18:17:00,49.9,40.5,30.11,NNE,31,10.0,10.0,70,0.00,,---,0.00,VWS V14.00,2013-04-16 23:17:00,
2013-04-16 18:22:00,49.8,40.0,30.11,NNE,32,4.0,6.0,69,0.00,,---,0.00,VWS V14.00,2013-04-16 23:22:00,
2013-04-16 18:27:00,49.8,40.0,30.11,NNE,32,5.0,6.0,69,0.00,,---,0.00,VWS V14.00,2013-04-16 23:27:00,
2013-04-16 18:32:00,49.8,40.4,30.12,NNE,30,5.0,7.0,70,0.00,,---,0.00,VWS V14.00,2013-04-16 23:32:00,
2013-04-16 18:37:00,49.8,40.8,30.12,NNE,31,3.0,6.0,71,0.00,,---,0.00,VWS V14.00,2013-04-16 23:37:00,
2013-04-16 18:43:00,49.6,41.0,30.12,NNE,31,4.0,5.0,72,0.00,,---,0.00,VWS V14.00,2013-04-16 23:43:00,
2013-04-16 18:47:00,49.6,41.0,30.13,NNE,31,5.0,5.0,72,0.00,,---,0.00,VWS V14.00,2013-04-16 23:47:00,
2013-04-16 18:52:00,49.6,42.4,30.13,NNE,31,3.0,4.0,76,0.00,,---,0.00,VWS V14.00,2013-04-16 23:52:00,
2013-04-16 18:57:00,49.5,41.6,30.13,NNE,31,2.0,5.0,74,0.00,,---,0.00,VWS V14.00,2013-04-16 23:57:00,
2013-04-16 19:03:00,49.5,41.6,30.14,NNE,31,2.0,4.0,74,0.00,,---,0.00,VWS V14.00,2013-04-17 00:03:00,
2013-04-16 19:08:00,49.5,41.9,30.14,NNE,31,3.0,3.0,75,0.00,,---,0.00,VWS V14.00,2013-04-17 00:08:00,
2013-04-16 19:13:00,49.5,42.3,30.14,NNE,31,3.0,3.0,76,0.00,,---,0.00,VWS V14.00,2013-04-17 00:13:00,
2013-04-16 19:18:00,49.4,42.2,30.13,NNE,31,4.0,4.0,76,0.00,,---,0.00,VWS V14.00,2013-04-17 00:18:00,
2013-04-16 19:23:00,49.4,42.2,30.13,NNE,31,4.0,4.0,76,0.00,,---,0.00,VWS V14.00,2013-04-17 00:23:00,
2013-04-16 19:28:00,49.4,42.2,30.13,NNE,31,2.0,3.0,76,0.00,,---,0.00,VWS V14.00,2013-04-17 00:28:00,
2013-04-16 19:33:00,49.4,42.2,30.12,NNE,31,4.0,7.0,76,0.00,,---,0.00,VWS V14.00,2013-04-17 00:33:00,
2013-04-16 19:38:00,49.4,42.2,30.12,NNE,31,2.0,4.0,76,0.00,,---,0.00,VWS V14.00,2013-04-17 00:38:00,
2013-04-16 19:43:00,49.4,42.5,30.12,NNE,31,3.0,4.0,77,0.00,,---,0.00,VWS V14.00,2013-04-17 00:43:00,
2013-04-16 19:48:00,49.2,42.3,30.12,NNE,31,3.0,4.0,77,0.00,,---,0.00,VWS V14.00,2013-04-17 00:48:00,
2013-04-16 19:53:00,49.1,42.2,30.12,NNE,31,4.0,4.0,77,0.00,,---,0.00,VWS V14.00,2013-04-17 00:53:00,
2013-04-16 19:58:00,49.1,42.5,30.12,NNE,31,3.0,3.0,78,0.00,,---,0.00,VWS V14.00,2013-04-17 00:58:00,
2013-04-16 20:03:00,49.1,42.5,30.14,NNE,31,3.0,3.0,78,0.00,,---,0.00,VWS V14.00,2013-04-17 01:03:00,
2013-04-16 20:08:00,49.1,42.5,30.14,NNE,31,3.0,5.0,78,0.00,,---,0.00,VWS V14.00,2013-04-17 01:08:00,
2013-04-16 20:14:00,49.1,42.9,30.14,NNE,31,2.0,2.0,79,0.00,,---,0.00,VWS V14.00,2013-04-17 01:14:00,
2013-04-16 20:19:00,49.1,43.2,30.14,NNE,31,0.0,0.0,80,0.00,,---,0.00,VWS V14.00,2013-04-17 01:19:00,
2013-04-16 20:24:00,49.1,43.2,30.14,NNE,31,1.0,2.0,80,0.00,,---,0.00,VWS V14.00,2013-04-17 01:24:00,
2013-04-16 20:29:00,48.9,43.3,30.14,NNE,31,2.0,5.0,81,0.00,,---,0.00,VWS V14.00,2013-04-17 01:29:00,
2013-04-16 20:34:00,48.9,43.7,30.12,NNE,31,2.0,3.0,82,0.00,,---,0.00,VWS V14.00,2013-04-17 01:34:00,
2013-04-16 20:39:00,48.8,43.6,30.12,NNE,31,2.0,3.0,82,0.00,,---,0.00,VWS V14.00,2013-04-17 01:39:00,
2013-04-16 20:44:00,48.8,43.6,30.12,NNE,31,3.0,4.0,82,0.00,,---,0.00,VWS V14.00,2013-04-17 01:44:00,
2013-04-16 20:49:00,48.9,43.7,30.14,NNE,31,2.0,2.0,82,0.00,,---,0.00,VWS V14.00,2013-04-17 01:49:00,
2013-04-16 20:54:00,48.9,43.7,30.14,NNE,31,0.0,1.0,82,0.00,,---,0.00,VWS V14.00,2013-04-17 01:54:00,
2013-04-16 20:59:00,48.9,43.7,30.14,NNE,31,0.0,0.0,82,0.00,,---,0.00,VWS V14.00,2013-04-17 01:59:00,
2013-04-16 21:04:00,48.9,43.7,30.16,NNE,31,1.0,2.0,82,0.00,,---,0.00,VWS V14.00,2013-04-17 02:04:00,
2013-04-16 21:09:00,48.9,44.0,30.16,NNE,31,1.0,1.0,83,0.00,,---,0.00,VWS V14.00,2013-04-17 02:09:00,
2013-04-16 21:14:00,48.9,44.0,30.16,NNE,31,0.0,0.0,83,0.00,,---,0.00,VWS V14.00,2013-04-17 02:14:00,
2013-04-16 21:20:00,48.9,44.3,30.16,NNE,31,0.0,0.0,84,0.00,,---,0.00,VWS V14.00,2013-04-17 02:20:00,
2013-04-16 21:25:00,48.9,44.3,30.16,NNE,31,0.0,0.0,84,0.00,,---,0.00,VWS V14.00,2013-04-17 02:25:00,
2013-04-16 21:30:00,48.9,44.3,30.16,NNE,31,0.0,0.0,84,0.00,,---,0.00,VWS V14.00,2013-04-17 02:30:00,
2013-04-16 21:35:00,49.1,44.8,30.16,NNE,31,0.0,0.0,85,0.00,,---,0.00,VWS V14.00,2013-04-17 02:35:00,
2013-04-16 21:40:00,49.1,44.8,30.16,NNE,31,0.0,0.0,85,0.00,,---,0.00,VWS V14.00,2013-04-17 02:40:00,
2013-04-16 21:45:00,49.2,45.2,30.16,NNE,31,0.0,0.0,86,0.00,,---,0.00,VWS V14.00,2013-04-17 02:45:00,
2013-04-16 21:50:00,49.2,45.2,30.15,NNE,31,0.0,0.0,86,0.00,,---,0.00,VWS V14.00,2013-04-17 02:50:00,
2013-04-16 21:55:00,49.2,45.2,30.15,NNE,31,0.0,0.0,86,0.00,,---,0.00,VWS V14.00,2013-04-17 02:55:00,
2013-04-16 22:00:00,49.1,45.4,30.15,NNE,31,0.0,1.0,87,0.00,,---,0.00,VWS V14.00,2013-04-17 03:00:00,
2013-04-16 22:05:00,48.9,45.2,30.15,NNE,31,0.0,2.0,87,0.00,,---,0.00,VWS V14.00,2013-04-17 03:05:00,
2013-04-16 22:10:00,48.8,45.1,30.15,NNE,31,2.0,4.0,87,0.00,,---,0.00,VWS V14.00,2013-04-17 03:10:00,
2013-04-16 22:16:00,48.6,44.6,30.15,NNE,31,2.0,3.0,86,0.00,,---,0.00,VWS V14.00,2013-04-17 03:16:00,
2013-04-16 22:21:00,48.5,44.5,30.15,NNE,32,1.0,2.0,86,0.00,,---,0.00,VWS V14.00,2013-04-17 03:21:00,
2013-04-16 22:26:00,48.3,44.0,30.15,NNE,32,0.0,2.0,85,0.00,,---,0.00,VWS V14.00,2013-04-17 03:26:00,
2013-04-16 22:31:00,48.3,44.0,30.15,NNE,32,0.0,5.0,85,0.00,,---,0.00,VWS V14.00,2013-04-17 03:31:00,
2013-04-16 22:36:00,48.2,43.9,30.16,NNE,32,0.0,1.0,85,0.00,,---,0.00,VWS V14.00,2013-04-17 03:36:00,
2013-04-16 22:41:00,48.2,43.9,30.16,NNE,32,0.0,1.0,85,0.00,,---,0.00,VWS V14.00,2013-04-17 03:41:00,
2013-04-16 22:46:00,48.0,43.4,30.16,NNE,32,1.0,1.0,84,0.00,,---,0.00,VWS V14.00,2013-04-17 03:46:00,
2013-04-16 22:51:00,48.0,43.1,30.15,NE,34,0.0,3.0,83,0.00,,---,0.00,VWS V14.00,2013-04-17 03:51:00,
2013-04-16 22:56:00,47.9,43.0,30.15,NE,34,2.0,2.0,83,0.00,,---,0.00,VWS V14.00,2013-04-17 03:56:00,
2013-04-16 23:00:00,47.9,43.0,30.15,NE,34,1.0,3.0,83,0.00,,---,0.00,VWS V14.00,2013-04-17 04:00:00,
2013-04-16 23:03:00,47.9,43.0,30.16,NE,34,1.0,2.0,83,0.00,,---,0.00,VWS V14.00,2013-04-17 04:03:00,
2013-04-16 23:08:00,47.7,42.8,30.16,NE,34,0.0,0.0,83,0.00,,---,0.00,VWS V14.00,2013-04-17 04:08:00,
2013-04-16 23:13:00,47.7,42.8,30.16,NE,34,0.0,0.0,83,0.00,,---,0.00,VWS V14.00,2013-04-17 04:13:00,
2013-04-16 23:18:00,47.6,42.4,30.16,NE,34,0.0,0.0,82,0.00,,---,0.00,VWS V14.00,2013-04-17 04:18:00,
2013-04-16 23:23:00,47.6,42.4,30.16,NE,34,0.0,3.0,82,0.00,,---,0.00,VWS V14.00,2013-04-17 04:23:00,
2013-04-16 23:28:00,47.6,42.4,30.16,NE,36,1.0,1.0,82,0.00,,---,0.00,VWS V14.00,2013-04-17 04:28:00,
2013-04-16 23:33:00,47.6,42.4,30.16,NE,36,6.0,6.0,82,0.00,,---,0.00,VWS V14.00,2013-04-17 04:33:00,
2013-04-16 23:38:00,47.4,41.9,30.16,NE,36,4.0,5.0,81,0.00,,---,0.00,VWS V14.00,2013-04-17 04:38:00,
2013-04-16 23:43:00,47.4,41.9,30.16,NE,36,1.0,4.0,81,0.00,,---,0.00,VWS V14.00,2013-04-17 04:43:00,
2013-04-16 23:49:00,47.3,41.5,30.17,NE,36,0.0,4.0,80,0.00,,---,0.00,VWS V14.00,2013-04-17 04:49:00,
2013-04-16 23:54:00,47.3,41.1,30.17,NE,36,5.0,5.0,79,0.00,,---,0.00,VWS V14.00,2013-04-17 04:54:00,
2013-04-16 23:59:00,47.3,41.1,30.17,NE,36,1.0,3.0,79,0.00,,---,0.00,VWS V14.00,2013-04-17 04:59:00,